sensor_id;sensor_type;location;lat;lon;timestamp;temperature;humidity
439;DHT22;206;48.782;9.252;2023-05-07T00:02:21;16.50;47.00
439;DHT22;206;48.782;9.252;2023-05-07T00:04:48;16.50;47.10
439;DHT22;206;48.782;9.252;2023-05-07T00:07:14;16.50;47.50
439;DHT22;206;48.782;9.252;2023-05-07T00:09:40;16.50;47.20
439;DHT22;206;48.782;9.252;2023-05-07T00:12:05;16.40;46.80
439;DHT22;206;48.782;9.252;2023-05-07T00:14:31;16.40;47.60
439;DHT22;206;48.782;9.252;2023-05-07T00:16:57;16.40;47.90
439;DHT22;206;48.782;9.252;2023-05-07T00:19:22;16.40;48.10
439;DHT22;206;48.782;9.252;2023-05-07T00:21:48;16.30;48.90
439;DHT22;206;48.782;9.252;2023-05-07T00:24:14;16.30;48.90
439;DHT22;206;48.782;9.252;2023-05-07T00:26:39;16.30;49.30
439;DHT22;206;48.782;9.252;2023-05-07T00:29:05;16.30;49.30
439;DHT22;206;48.782;9.252;2023-05-07T00:31:30;16.30;49.30
439;DHT22;206;48.782;9.252;2023-05-07T00:33:56;16.20;50.10
439;DHT22;206;48.782;9.252;2023-05-07T00:36:21;16.20;50.20
439;DHT22;206;48.782;9.252;2023-05-07T00:38:47;16.20;50.30
439;DHT22;206;48.782;9.252;2023-05-07T00:41:13;16.10;50.50
439;DHT22;206;48.782;9.252;2023-05-07T00:43:38;16.10;50.90
439;DHT22;206;48.782;9.252;2023-05-07T00:46:04;16.10;51.30
439;DHT22;206;48.782;9.252;2023-05-07T00:48:30;16.10;51.50
439;DHT22;206;48.782;9.252;2023-05-07T00:50:57;16.10;51.40
439;DHT22;206;48.782;9.252;2023-05-07T00:53:22;16.00;51.60
439;DHT22;206;48.782;9.252;2023-05-07T00:55:48;16.00;51.90
439;DHT22;206;48.782;9.252;2023-05-07T00:58:14;16.00;52.00
439;DHT22;206;48.782;9.252;2023-05-07T01:00:40;16.00;52.50
439;DHT22;206;48.782;9.252;2023-05-07T01:03:06;15.90;52.70
439;DHT22;206;48.782;9.252;2023-05-07T01:05:31;15.90;52.90
439;DHT22;206;48.782;9.252;2023-05-07T01:07:57;15.90;53.20
439;DHT22;206;48.782;9.252;2023-05-07T01:10:24;15.80;53.60
439;DHT22;206;48.782;9.252;2023-05-07T01:12:50;15.80;53.70
439;DHT22;206;48.782;9.252;2023-05-07T01:15:16;15.80;54.10
439;DHT22;206;48.782;9.252;2023-05-07T01:17:43;15.80;54.70
439;DHT22;206;48.782;9.252;2023-05-07T01:20:09;15.80;54.70
439;DHT22;206;48.782;9.252;2023-05-07T01:22:37;15.70;55.00
439;DHT22;206;48.782;9.252;2023-05-07T01:25:04;15.70;55.20
439;DHT22;206;48.782;9.252;2023-05-07T01:27:30;15.70;55.30
439;DHT22;206;48.782;9.252;2023-05-07T01:29:55;15.70;55.80
439;DHT22;206;48.782;9.252;2023-05-07T01:32:29;15.60;55.50
439;DHT22;206;48.782;9.252;2023-05-07T01:34:57;15.60;55.70
439;DHT22;206;48.782;9.252;2023-05-07T01:37:25;15.60;55.50
439;DHT22;206;48.782;9.252;2023-05-07T01:39:52;15.60;55.50
439;DHT22;206;48.782;9.252;2023-05-07T01:42:17;15.60;55.40
439;DHT22;206;48.782;9.252;2023-05-07T01:44:43;15.60;55.80
439;DHT22;206;48.782;9.252;2023-05-07T01:47:09;15.50;56.00
439;DHT22;206;48.782;9.252;2023-05-07T01:49:35;15.50;56.40
439;DHT22;206;48.782;9.252;2023-05-07T01:52:01;15.50;56.60
439;DHT22;206;48.782;9.252;2023-05-07T01:54:27;15.40;56.20
439;DHT22;206;48.782;9.252;2023-05-07T01:56:55;15.40;56.40
439;DHT22;206;48.782;9.252;2023-05-07T01:59:20;15.40;56.70
439;DHT22;206;48.782;9.252;2023-05-07T02:01:46;15.40;56.80
439;DHT22;206;48.782;9.252;2023-05-07T02:04:12;15.40;57.30
439;DHT22;206;48.782;9.252;2023-05-07T02:06:38;15.30;57.90
439;DHT22;206;48.782;9.252;2023-05-07T02:09:04;15.30;58.00
439;DHT22;206;48.782;9.252;2023-05-07T02:11:29;15.30;58.00
439;DHT22;206;48.782;9.252;2023-05-07T02:13:55;15.30;58.00
439;DHT22;206;48.782;9.252;2023-05-07T02:16:21;15.20;58.00
439;DHT22;206;48.782;9.252;2023-05-07T02:18:47;15.20;58.00
439;DHT22;206;48.782;9.252;2023-05-07T02:21:13;15.20;58.40
439;DHT22;206;48.782;9.252;2023-05-07T02:23:38;15.10;59.10
439;DHT22;206;48.782;9.252;2023-05-07T02:26:04;15.20;59.00
439;DHT22;206;48.782;9.252;2023-05-07T02:28:30;15.10;58.40
439;DHT22;206;48.782;9.252;2023-05-07T02:30:55;15.10;58.80
439;DHT22;206;48.782;9.252;2023-05-07T02:33:23;15.00;59.40
439;DHT22;206;48.782;9.252;2023-05-07T02:35:49;15.00;59.80
439;DHT22;206;48.782;9.252;2023-05-07T02:38:17;15.00;60.20
439;DHT22;206;48.782;9.252;2023-05-07T02:40:42;15.00;60.30
439;DHT22;206;48.782;9.252;2023-05-07T02:43:08;14.90;60.60
439;DHT22;206;48.782;9.252;2023-05-07T02:45:34;15.00;60.60
439;DHT22;206;48.782;9.252;2023-05-07T02:48:00;14.90;61.00
439;DHT22;206;48.782;9.252;2023-05-07T02:50:26;14.90;61.40
439;DHT22;206;48.782;9.252;2023-05-07T02:52:52;14.90;61.30
439;DHT22;206;48.782;9.252;2023-05-07T02:55:18;14.80;61.70
439;DHT22;206;48.782;9.252;2023-05-07T02:57:43;14.80;62.40
439;DHT22;206;48.782;9.252;2023-05-07T03:00:16;14.70;62.30
439;DHT22;206;48.782;9.252;2023-05-07T03:02:43;14.70;62.40
439;DHT22;206;48.782;9.252;2023-05-07T03:05:09;14.60;63.00
439;DHT22;206;48.782;9.252;2023-05-07T03:07:35;14.60;63.00
439;DHT22;206;48.782;9.252;2023-05-07T03:10:02;14.60;63.20
439;DHT22;206;48.782;9.252;2023-05-07T03:12:27;14.60;63.60
439;DHT22;206;48.782;9.252;2023-05-07T03:14:53;14.50;63.80
439;DHT22;206;48.782;9.252;2023-05-07T03:17:18;14.50;64.00
439;DHT22;206;48.782;9.252;2023-05-07T03:19:44;14.50;64.50
439;DHT22;206;48.782;9.252;2023-05-07T03:22:09;14.50;64.60
439;DHT22;206;48.782;9.252;2023-05-07T03:24:35;14.40;64.20
439;DHT22;206;48.782;9.252;2023-05-07T03:27:00;14.40;64.40
439;DHT22;206;48.782;9.252;2023-05-07T03:29:26;14.40;64.70
439;DHT22;206;48.782;9.252;2023-05-07T03:31:52;14.50;64.70
439;DHT22;206;48.782;9.252;2023-05-07T03:34:17;14.40;64.70
439;DHT22;206;48.782;9.252;2023-05-07T03:36:48;14.40;64.80
439;DHT22;206;48.782;9.252;2023-05-07T03:39:13;14.40;65.00
439;DHT22;206;48.782;9.252;2023-05-07T03:41:39;14.30;65.30
439;DHT22;206;48.782;9.252;2023-05-07T03:44:04;14.30;65.30
439;DHT22;206;48.782;9.252;2023-05-07T03:46:30;14.30;65.30
439;DHT22;206;48.782;9.252;2023-05-07T03:48:56;14.20;65.20
439;DHT22;206;48.782;9.252;2023-05-07T03:51:21;14.20;64.80
439;DHT22;206;48.782;9.252;2023-05-07T03:53:47;14.20;65.10
439;DHT22;206;48.782;9.252;2023-05-07T03:56:13;14.20;65.50
439;DHT22;206;48.782;9.252;2023-05-07T03:58:38;14.20;65.20
439;DHT22;206;48.782;9.252;2023-05-07T04:01:04;14.20;65.50
439;DHT22;206;48.782;9.252;2023-05-07T04:03:29;14.20;65.30
439;DHT22;206;48.782;9.252;2023-05-07T04:05:55;14.10;65.80
439;DHT22;206;48.782;9.252;2023-05-07T04:08:21;14.10;66.40
439;DHT22;206;48.782;9.252;2023-05-07T04:10:46;14.20;66.90
439;DHT22;206;48.782;9.252;2023-05-07T04:13:12;14.20;66.40
439;DHT22;206;48.782;9.252;2023-05-07T04:15:38;14.20;66.10
439;DHT22;206;48.782;9.252;2023-05-07T04:18:03;14.20;66.30
439;DHT22;206;48.782;9.252;2023-05-07T04:20:29;14.20;66.20
439;DHT22;206;48.782;9.252;2023-05-07T04:22:54;14.30;65.90
439;DHT22;206;48.782;9.252;2023-05-07T04:25:20;14.30;65.20
439;DHT22;206;48.782;9.252;2023-05-07T04:27:47;14.30;64.40
439;DHT22;206;48.782;9.252;2023-05-07T04:30:14;14.30;64.10
439;DHT22;206;48.782;9.252;2023-05-07T04:32:39;14.40;64.20
439;DHT22;206;48.782;9.252;2023-05-07T04:35:05;14.50;63.30
439;DHT22;206;48.782;9.252;2023-05-07T04:37:34;14.60;62.20
439;DHT22;206;48.782;9.252;2023-05-07T04:40:00;14.70;62.10
439;DHT22;206;48.782;9.252;2023-05-07T04:42:26;14.70;61.20
439;DHT22;206;48.782;9.252;2023-05-07T04:44:55;14.70;60.90
439;DHT22;206;48.782;9.252;2023-05-07T04:47:20;14.80;60.60
439;DHT22;206;48.782;9.252;2023-05-07T04:49:46;14.80;60.00
439;DHT22;206;48.782;9.252;2023-05-07T04:52:12;14.90;59.90
439;DHT22;206;48.782;9.252;2023-05-07T04:54:37;15.00;59.30
439;DHT22;206;48.782;9.252;2023-05-07T04:57:06;15.10;58.50
439;DHT22;206;48.782;9.252;2023-05-07T04:59:32;15.20;58.00
439;DHT22;206;48.782;9.252;2023-05-07T05:01:58;15.10;57.80
439;DHT22;206;48.782;9.252;2023-05-07T05:04:23;15.20;58.00
439;DHT22;206;48.782;9.252;2023-05-07T05:06:49;15.20;58.00
439;DHT22;206;48.782;9.252;2023-05-07T05:09:15;15.20;57.90
439;DHT22;206;48.782;9.252;2023-05-07T05:11:41;15.20;58.00
439;DHT22;206;48.782;9.252;2023-05-07T05:14:07;15.20;58.00
439;DHT22;206;48.782;9.252;2023-05-07T05:16:32;15.20;57.90
439;DHT22;206;48.782;9.252;2023-05-07T05:18:58;15.20;58.00
439;DHT22;206;48.782;9.252;2023-05-07T05:21:24;15.20;58.00
439;DHT22;206;48.782;9.252;2023-05-07T05:23:49;15.20;57.90
439;DHT22;206;48.782;9.252;2023-05-07T05:26:15;15.20;57.50
439;DHT22;206;48.782;9.252;2023-05-07T05:28:41;15.20;58.00
439;DHT22;206;48.782;9.252;2023-05-07T05:31:06;15.30;57.50
439;DHT22;206;48.782;9.252;2023-05-07T05:33:32;15.50;56.80
439;DHT22;206;48.782;9.252;2023-05-07T05:35:57;15.70;56.30
439;DHT22;206;48.782;9.252;2023-05-07T05:38:23;15.90;54.80
439;DHT22;206;48.782;9.252;2023-05-07T05:40:49;16.10;52.90
439;DHT22;206;48.782;9.252;2023-05-07T05:43:14;16.30;51.50
439;DHT22;206;48.782;9.252;2023-05-07T05:45:40;16.40;51.30
439;DHT22;206;48.782;9.252;2023-05-07T05:48:06;16.50;50.60
439;DHT22;206;48.782;9.252;2023-05-07T05:50:32;16.50;50.10
439;DHT22;206;48.782;9.252;2023-05-07T05:52:57;16.60;50.00
439;DHT22;206;48.782;9.252;2023-05-07T05:55:23;16.70;49.60
439;DHT22;206;48.782;9.252;2023-05-07T05:57:49;16.90;49.10
439;DHT22;206;48.782;9.252;2023-05-07T06:00:16;17.00;47.90
439;DHT22;206;48.782;9.252;2023-05-07T06:02:42;17.10;47.50
439;DHT22;206;48.782;9.252;2023-05-07T06:05:08;17.20;47.00
439;DHT22;206;48.782;9.252;2023-05-07T06:07:34;17.30;46.40
439;DHT22;206;48.782;9.252;2023-05-07T06:10:00;17.50;46.00
439;DHT22;206;48.782;9.252;2023-05-07T06:12:26;17.70;45.10
439;DHT22;206;48.782;9.252;2023-05-07T06:14:52;17.90;43.90
439;DHT22;206;48.782;9.252;2023-05-07T06:17:17;17.90;42.30
439;DHT22;206;48.782;9.252;2023-05-07T06:19:43;18.00;42.60
439;DHT22;206;48.782;9.252;2023-05-07T06:22:08;18.10;42.40
439;DHT22;206;48.782;9.252;2023-05-07T06:24:34;18.30;41.20
439;DHT22;206;48.782;9.252;2023-05-07T06:27:00;18.30;41.20
439;DHT22;206;48.782;9.252;2023-05-07T06:29:25;18.20;40.90
439;DHT22;206;48.782;9.252;2023-05-07T06:31:52;18.20;40.90
439;DHT22;206;48.782;9.252;2023-05-07T06:34:18;18.20;41.10
439;DHT22;206;48.782;9.252;2023-05-07T06:36:44;18.30;40.70
439;DHT22;206;48.782;9.252;2023-05-07T06:39:09;18.30;41.10
439;DHT22;206;48.782;9.252;2023-05-07T06:41:35;18.40;40.40
439;DHT22;206;48.782;9.252;2023-05-07T06:44:02;18.60;40.30
439;DHT22;206;48.782;9.252;2023-05-07T06:46:28;19.00;38.70
439;DHT22;206;48.782;9.252;2023-05-07T06:48:53;19.70;36.50
439;DHT22;206;48.782;9.252;2023-05-07T06:51:19;20.60;33.00
439;DHT22;206;48.782;9.252;2023-05-07T06:53:45;21.20;29.40
439;DHT22;206;48.782;9.252;2023-05-07T06:56:10;21.60;28.70
439;DHT22;206;48.782;9.252;2023-05-07T06:58:37;22.10;27.50
439;DHT22;206;48.782;9.252;2023-05-07T07:01:03;22.80;26.10
439;DHT22;206;48.782;9.252;2023-05-07T07:03:28;23.70;24.30
439;DHT22;206;48.782;9.252;2023-05-07T07:05:54;24.80;21.90
439;DHT22;206;48.782;9.252;2023-05-07T07:08:21;25.70;20.00
439;DHT22;206;48.782;9.252;2023-05-07T07:10:47;26.10;17.80
439;DHT22;206;48.782;9.252;2023-05-07T07:13:13;26.70;17.20
439;DHT22;206;48.782;9.252;2023-05-07T07:15:39;26.80;16.40
439;DHT22;206;48.782;9.252;2023-05-07T07:18:05;26.40;17.10
439;DHT22;206;48.782;9.252;2023-05-07T07:20:31;26.60;16.80
439;DHT22;206;48.782;9.252;2023-05-07T07:22:56;27.00;16.40
439;DHT22;206;48.782;9.252;2023-05-07T07:25:22;27.60;15.40
439;DHT22;206;48.782;9.252;2023-05-07T07:27:49;27.10;15.30
439;DHT22;206;48.782;9.252;2023-05-07T07:30:14;27.50;14.80
439;DHT22;206;48.782;9.252;2023-05-07T07:32:40;27.40;14.90
439;DHT22;206;48.782;9.252;2023-05-07T07:35:06;27.80;14.90
439;DHT22;206;48.782;9.252;2023-05-07T07:37:32;28.50;13.40
439;DHT22;206;48.782;9.252;2023-05-07T07:39:57;29.00;12.40
439;DHT22;206;48.782;9.252;2023-05-07T07:42:23;28.60;13.00
439;DHT22;206;48.782;9.252;2023-05-07T07:44:49;28.90;12.20
439;DHT22;206;48.782;9.252;2023-05-07T07:47:14;28.90;12.20
439;DHT22;206;48.782;9.252;2023-05-07T07:49:40;28.70;12.30
439;DHT22;206;48.782;9.252;2023-05-07T07:52:05;28.80;12.10
439;DHT22;206;48.782;9.252;2023-05-07T07:54:31;29.00;12.20
439;DHT22;206;48.782;9.252;2023-05-07T07:56:58;29.30;11.80
439;DHT22;206;48.782;9.252;2023-05-07T07:59:23;29.80;10.80
439;DHT22;206;48.782;9.252;2023-05-07T08:01:49;29.80;10.90
439;DHT22;206;48.782;9.252;2023-05-07T08:04:16;29.40;11.10
439;DHT22;206;48.782;9.252;2023-05-07T08:06:41;29.20;11.30
439;DHT22;206;48.782;9.252;2023-05-07T08:09:07;28.90;12.20
439;DHT22;206;48.782;9.252;2023-05-07T08:11:33;28.40;11.90
439;DHT22;206;48.782;9.252;2023-05-07T08:13:59;28.10;12.90
439;DHT22;206;48.782;9.252;2023-05-07T08:16:24;28.10;13.10
439;DHT22;206;48.782;9.252;2023-05-07T08:18:50;28.00;13.70
439;DHT22;206;48.782;9.252;2023-05-07T08:21:16;27.90;13.10
439;DHT22;206;48.782;9.252;2023-05-07T08:23:41;28.10;13.00
439;DHT22;206;48.782;9.252;2023-05-07T08:26:08;28.00;12.80
439;DHT22;206;48.782;9.252;2023-05-07T08:28:33;28.00;13.00
439;DHT22;206;48.782;9.252;2023-05-07T08:30:59;27.90;13.20
439;DHT22;206;48.782;9.252;2023-05-07T08:33:26;27.80;13.50
439;DHT22;206;48.782;9.252;2023-05-07T08:35:52;27.90;13.30
439;DHT22;206;48.782;9.252;2023-05-07T08:38:17;28.10;13.10
439;DHT22;206;48.782;9.252;2023-05-07T08:40:43;28.00;13.40
439;DHT22;206;48.782;9.252;2023-05-07T08:43:12;28.00;13.20
439;DHT22;206;48.782;9.252;2023-05-07T08:45:39;28.00;13.50
439;DHT22;206;48.782;9.252;2023-05-07T08:48:09;28.10;13.20
439;DHT22;206;48.782;9.252;2023-05-07T08:50:36;28.00;13.40
439;DHT22;206;48.782;9.252;2023-05-07T08:53:05;27.80;13.60
439;DHT22;206;48.782;9.252;2023-05-07T08:55:31;27.60;13.80
439;DHT22;206;48.782;9.252;2023-05-07T08:57:57;27.40;14.50
439;DHT22;206;48.782;9.252;2023-05-07T09:00:23;27.40;14.20
439;DHT22;206;48.782;9.252;2023-05-07T09:02:48;27.40;14.30
439;DHT22;206;48.782;9.252;2023-05-07T09:05:14;27.30;14.50
439;DHT22;206;48.782;9.252;2023-05-07T09:07:39;27.30;14.60
439;DHT22;206;48.782;9.252;2023-05-07T09:10:06;27.20;14.80
439;DHT22;206;48.782;9.252;2023-05-07T09:12:32;27.10;15.10
439;DHT22;206;48.782;9.252;2023-05-07T09:14:58;27.10;15.30
439;DHT22;206;48.782;9.252;2023-05-07T09:17:24;26.80;15.50
439;DHT22;206;48.782;9.252;2023-05-07T09:19:50;26.70;15.90
439;DHT22;206;48.782;9.252;2023-05-07T09:22:16;26.70;15.80
439;DHT22;206;48.782;9.252;2023-05-07T09:24:50;26.70;15.80
439;DHT22;206;48.782;9.252;2023-05-07T09:27:17;26.80;15.80
439;DHT22;206;48.782;9.252;2023-05-07T09:29:43;26.70;15.80
439;DHT22;206;48.782;9.252;2023-05-07T09:32:09;26.60;16.00
439;DHT22;206;48.782;9.252;2023-05-07T09:34:35;26.60;15.60
439;DHT22;206;48.782;9.252;2023-05-07T09:37:02;26.60;15.90
439;DHT22;206;48.782;9.252;2023-05-07T09:39:48;26.60;16.20
439;DHT22;206;48.782;9.252;2023-05-07T09:42:14;26.60;15.90
439;DHT22;206;48.782;9.252;2023-05-07T09:44:45;26.50;16.00
439;DHT22;206;48.782;9.252;2023-05-07T09:47:18;26.60;16.10
439;DHT22;206;48.782;9.252;2023-05-07T09:49:47;26.50;16.20
439;DHT22;206;48.782;9.252;2023-05-07T09:52:14;26.40;16.60
439;DHT22;206;48.782;9.252;2023-05-07T09:54:40;26.30;16.50
439;DHT22;206;48.782;9.252;2023-05-07T09:57:10;26.40;16.40
439;DHT22;206;48.782;9.252;2023-05-07T09:59:37;26.50;16.30
439;DHT22;206;48.782;9.252;2023-05-07T10:02:04;26.50;16.00
439;DHT22;206;48.782;9.252;2023-05-07T10:04:31;26.60;16.20
439;DHT22;206;48.782;9.252;2023-05-07T10:06:57;26.70;15.70
439;DHT22;206;48.782;9.252;2023-05-07T10:09:25;26.80;15.70
439;DHT22;206;48.782;9.252;2023-05-07T10:11:51;26.80;15.00
439;DHT22;206;48.782;9.252;2023-05-07T10:14:17;26.70;15.10
439;DHT22;206;48.782;9.252;2023-05-07T10:16:44;26.80;14.90
439;DHT22;206;48.782;9.252;2023-05-07T10:19:11;27.00;15.60
439;DHT22;206;48.782;9.252;2023-05-07T10:21:39;27.00;14.80
439;DHT22;206;48.782;9.252;2023-05-07T10:24:10;27.10;14.30
439;DHT22;206;48.782;9.252;2023-05-07T10:26:44;27.20;14.50
439;DHT22;206;48.782;9.252;2023-05-07T10:32:39;27.30;14.10
439;DHT22;206;48.782;9.252;2023-05-07T10:35:09;27.40;13.80
439;DHT22;206;48.782;9.252;2023-05-07T10:37:36;27.60;13.40
439;DHT22;206;48.782;9.252;2023-05-07T10:40:02;27.80;13.20
439;DHT22;206;48.782;9.252;2023-05-07T10:42:28;27.70;13.20
439;DHT22;206;48.782;9.252;2023-05-07T10:44:53;27.70;13.40
439;DHT22;206;48.782;9.252;2023-05-07T10:47:19;27.70;12.90
439;DHT22;206;48.782;9.252;2023-05-07T10:52:12;27.90;12.60
439;DHT22;206;48.782;9.252;2023-05-07T10:54:39;28.20;11.80
439;DHT22;206;48.782;9.252;2023-05-07T10:57:36;28.60;12.00
439;DHT22;206;48.782;9.252;2023-05-07T11:00:03;29.00;11.30
439;DHT22;206;48.782;9.252;2023-05-07T11:05:30;29.10;10.50
439;DHT22;206;48.782;9.252;2023-05-07T11:08:03;29.10;10.20
439;DHT22;206;48.782;9.252;2023-05-07T11:10:49;29.10;10.20
439;DHT22;206;48.782;9.252;2023-05-07T11:13:16;29.30;9.90
439;DHT22;206;48.782;9.252;2023-05-07T11:15:44;29.40;9.40
439;DHT22;206;48.782;9.252;2023-05-07T11:18:11;29.30;9.50
439;DHT22;206;48.782;9.252;2023-05-07T11:26:04;29.60;9.00
439;DHT22;206;48.782;9.252;2023-05-07T11:28:31;29.10;10.90
439;DHT22;206;48.782;9.252;2023-05-07T11:30:57;29.10;11.00
439;DHT22;206;48.782;9.252;2023-05-07T11:33:23;28.60;11.50
439;DHT22;206;48.782;9.252;2023-05-07T11:35:52;28.30;11.90
439;DHT22;206;48.782;9.252;2023-05-07T11:38:19;28.00;12.50
439;DHT22;206;48.782;9.252;2023-05-07T11:40:58;27.80;12.70
439;DHT22;206;48.782;9.252;2023-05-07T11:43:26;27.70;12.50
439;DHT22;206;48.782;9.252;2023-05-07T11:45:52;27.40;12.50
439;DHT22;206;48.782;9.252;2023-05-07T11:48:18;27.40;12.40
439;DHT22;206;48.782;9.252;2023-05-07T11:51:03;26.90;13.50
439;DHT22;206;48.782;9.252;2023-05-07T11:53:36;27.00;13.40
439;DHT22;206;48.782;9.252;2023-05-07T11:56:16;26.90;13.50
439;DHT22;206;48.782;9.252;2023-05-07T11:58:44;27.00;13.40
439;DHT22;206;48.782;9.252;2023-05-07T12:01:10;26.70;12.80
439;DHT22;206;48.782;9.252;2023-05-07T12:03:46;26.30;13.60
439;DHT22;206;48.782;9.252;2023-05-07T12:06:13;26.40;13.50
439;DHT22;206;48.782;9.252;2023-05-07T12:08:41;26.30;13.60
439;DHT22;206;48.782;9.252;2023-05-07T12:11:08;26.20;14.10
439;DHT22;206;48.782;9.252;2023-05-07T12:13:35;26.10;13.90
439;DHT22;206;48.782;9.252;2023-05-07T12:16:01;25.70;14.50
439;DHT22;206;48.782;9.252;2023-05-07T12:18:30;25.60;15.30
439;DHT22;206;48.782;9.252;2023-05-07T12:20:56;25.40;16.80
439;DHT22;206;48.782;9.252;2023-05-07T12:23:23;25.30;16.50
439;DHT22;206;48.782;9.252;2023-05-07T12:25:48;25.10;18.90
439;DHT22;206;48.782;9.252;2023-05-07T12:28:19;25.00;22.20
439;DHT22;206;48.782;9.252;2023-05-07T12:30:46;24.80;27.60
439;DHT22;206;48.782;9.252;2023-05-07T12:33:23;24.60;31.70
439;DHT22;206;48.782;9.252;2023-05-07T12:35:48;24.20;27.60
439;DHT22;206;48.782;9.252;2023-05-07T12:38:16;23.90;25.20
439;DHT22;206;48.782;9.252;2023-05-07T12:45:43;22.70;35.70
439;DHT22;206;48.782;9.252;2023-05-07T12:48:10;22.30;35.70
439;DHT22;206;48.782;9.252;2023-05-07T12:50:36;21.90;38.30
439;DHT22;206;48.782;9.252;2023-05-07T12:53:04;21.90;44.30
439;DHT22;206;48.782;9.252;2023-05-07T12:55:41;21.80;41.70
439;DHT22;206;48.782;9.252;2023-05-07T12:58:07;21.50;35.00
439;DHT22;206;48.782;9.252;2023-05-07T13:00:35;21.50;29.50
439;DHT22;206;48.782;9.252;2023-05-07T13:03:01;21.50;39.70
439;DHT22;206;48.782;9.252;2023-05-07T13:05:26;21.40;41.40
439;DHT22;206;48.782;9.252;2023-05-07T13:07:58;21.20;43.10
439;DHT22;206;48.782;9.252;2023-05-07T13:10:24;21.20;46.40
439;DHT22;206;48.782;9.252;2023-05-07T13:12:50;21.10;46.80
439;DHT22;206;48.782;9.252;2023-05-07T13:15:17;20.80;42.30
439;DHT22;206;48.782;9.252;2023-05-07T13:17:42;20.60;43.90
439;DHT22;206;48.782;9.252;2023-05-07T13:20:09;20.50;44.50
439;DHT22;206;48.782;9.252;2023-05-07T13:22:36;20.40;48.00
439;DHT22;206;48.782;9.252;2023-05-07T13:25:01;20.10;49.40
439;DHT22;206;48.782;9.252;2023-05-07T13:27:27;20.00;52.60
439;DHT22;206;48.782;9.252;2023-05-07T13:29:52;19.30;47.00
439;DHT22;206;48.782;9.252;2023-05-07T13:32:18;19.10;44.60
439;DHT22;206;48.782;9.252;2023-05-07T13:34:43;18.90;42.40
439;DHT22;206;48.782;9.252;2023-05-07T13:37:09;18.60;38.90
439;DHT22;206;48.782;9.252;2023-05-07T13:39:35;18.40;45.10
439;DHT22;206;48.782;9.252;2023-05-07T13:42:00;18.20;44.10
439;DHT22;206;48.782;9.252;2023-05-07T13:44:26;17.90;42.80
439;DHT22;206;48.782;9.252;2023-05-07T13:46:52;17.70;43.80
439;DHT22;206;48.782;9.252;2023-05-07T13:49:17;17.80;46.00
439;DHT22;206;48.782;9.252;2023-05-07T13:51:43;17.90;57.10
439;DHT22;206;48.782;9.252;2023-05-07T13:54:09;18.00;58.50
439;DHT22;206;48.782;9.252;2023-05-07T13:56:34;18.10;58.40
439;DHT22;206;48.782;9.252;2023-05-07T13:59:00;18.10;57.70
439;DHT22;206;48.782;9.252;2023-05-07T14:01:26;18.20;58.20
439;DHT22;206;48.782;9.252;2023-05-07T14:03:52;18.30;60.10
439;DHT22;206;48.782;9.252;2023-05-07T14:06:17;18.40;60.70
439;DHT22;206;48.782;9.252;2023-05-07T14:08:43;18.50;63.90
439;DHT22;206;48.782;9.252;2023-05-07T14:11:08;18.50;60.90
439;DHT22;206;48.782;9.252;2023-05-07T14:13:34;18.60;60.30
439;DHT22;206;48.782;9.252;2023-05-07T14:16:00;18.70;56.30
439;DHT22;206;48.782;9.252;2023-05-07T14:18:26;18.70;56.50
439;DHT22;206;48.782;9.252;2023-05-07T14:20:51;18.70;57.10
439;DHT22;206;48.782;9.252;2023-05-07T14:23:17;18.70;56.60
439;DHT22;206;48.782;9.252;2023-05-07T14:25:45;18.70;58.50
439;DHT22;206;48.782;9.252;2023-05-07T14:28:13;18.70;60.10
439;DHT22;206;48.782;9.252;2023-05-07T14:30:38;18.70;59.40
439;DHT22;206;48.782;9.252;2023-05-07T14:33:04;18.60;57.20
439;DHT22;206;48.782;9.252;2023-05-07T14:35:30;18.60;58.30
439;DHT22;206;48.782;9.252;2023-05-07T14:37:55;18.60;56.20
439;DHT22;206;48.782;9.252;2023-05-07T14:40:21;18.60;57.20
439;DHT22;206;48.782;9.252;2023-05-07T14:42:47;18.60;57.60
439;DHT22;206;48.782;9.252;2023-05-07T14:45:12;18.70;59.40
439;DHT22;206;48.782;9.252;2023-05-07T14:47:38;18.60;60.60
439;DHT22;206;48.782;9.252;2023-05-07T14:50:04;18.70;59.60
439;DHT22;206;48.782;9.252;2023-05-07T14:52:30;18.70;59.00
439;DHT22;206;48.782;9.252;2023-05-07T14:54:55;18.80;62.00
439;DHT22;206;48.782;9.252;2023-05-07T14:57:21;18.90;61.70
439;DHT22;206;48.782;9.252;2023-05-07T14:59:47;19.00;60.20
439;DHT22;206;48.782;9.252;2023-05-07T15:02:13;19.10;59.40
439;DHT22;206;48.782;9.252;2023-05-07T15:04:38;19.20;56.70
439;DHT22;206;48.782;9.252;2023-05-07T15:07:14;19.20;58.50
439;DHT22;206;48.782;9.252;2023-05-07T15:09:43;19.40;56.90
439;DHT22;206;48.782;9.252;2023-05-07T15:12:09;19.40;56.70
439;DHT22;206;48.782;9.252;2023-05-07T15:14:35;19.50;56.60
439;DHT22;206;48.782;9.252;2023-05-07T15:17:00;19.50;57.30
439;DHT22;206;48.782;9.252;2023-05-07T15:19:26;19.50;55.60
439;DHT22;206;48.782;9.252;2023-05-07T15:21:58;19.50;52.90
439;DHT22;206;48.782;9.252;2023-05-07T15:24:25;19.30;52.00
439;DHT22;206;48.782;9.252;2023-05-07T15:26:52;19.40;56.90
439;DHT22;206;48.782;9.252;2023-05-07T15:29:17;19.40;57.70
439;DHT22;206;48.782;9.252;2023-05-07T15:31:43;19.40;59.80
439;DHT22;206;48.782;9.252;2023-05-07T15:34:09;19.40;57.40
439;DHT22;206;48.782;9.252;2023-05-07T15:36:34;19.40;57.70
439;DHT22;206;48.782;9.252;2023-05-07T15:39:01;19.40;57.80
439;DHT22;206;48.782;9.252;2023-05-07T15:41:28;19.50;58.60
439;DHT22;206;48.782;9.252;2023-05-07T15:43:54;19.60;58.20
439;DHT22;206;48.782;9.252;2023-05-07T15:46:21;19.60;59.60
439;DHT22;206;48.782;9.252;2023-05-07T15:48:48;19.50;60.00
439;DHT22;206;48.782;9.252;2023-05-07T15:51:14;19.50;59.80
439;DHT22;206;48.782;9.252;2023-05-07T15:53:41;19.50;58.60
439;DHT22;206;48.782;9.252;2023-05-07T15:56:07;19.50;59.10
439;DHT22;206;48.782;9.252;2023-05-07T15:58:32;19.40;62.20
439;DHT22;206;48.782;9.252;2023-05-07T16:00:59;19.30;63.00
439;DHT22;206;48.782;9.252;2023-05-07T16:03:26;19.30;62.80
439;DHT22;206;48.782;9.252;2023-05-07T16:05:53;19.20;62.90
439;DHT22;206;48.782;9.252;2023-05-07T16:08:19;19.20;64.20
439;DHT22;206;48.782;9.252;2023-05-07T16:10:44;19.20;59.80
439;DHT22;206;48.782;9.252;2023-05-07T16:13:10;19.10;61.50
439;DHT22;206;48.782;9.252;2023-05-07T16:15:35;19.20;63.80
439;DHT22;206;48.782;9.252;2023-05-07T16:18:01;19.10;62.70
439;DHT22;206;48.782;9.252;2023-05-07T16:20:28;19.10;61.50
439;DHT22;206;48.782;9.252;2023-05-07T16:22:56;19.10;63.00
439;DHT22;206;48.782;9.252;2023-05-07T16:25:22;19.00;66.80
439;DHT22;206;48.782;9.252;2023-05-07T16:27:48;19.00;66.70
439;DHT22;206;48.782;9.252;2023-05-07T16:30:14;19.00;66.10
439;DHT22;206;48.782;9.252;2023-05-07T16:32:39;18.90;63.50
439;DHT22;206;48.782;9.252;2023-05-07T16:35:05;18.90;63.00
439;DHT22;206;48.782;9.252;2023-05-07T16:37:32;19.00;65.50
439;DHT22;206;48.782;9.252;2023-05-07T16:40:00;19.10;66.90
439;DHT22;206;48.782;9.252;2023-05-07T16:42:27;19.10;66.20
439;DHT22;206;48.782;9.252;2023-05-07T16:44:53;19.20;64.20
439;DHT22;206;48.782;9.252;2023-05-07T16:47:19;19.30;61.70
439;DHT22;206;48.782;9.252;2023-05-07T16:49:45;19.30;61.00